createdAt,value
2022-09-10T00:01:41.626Z,2.28
2022-09-10T00:04:13.768Z,2.35
2022-09-10T00:06:43.197Z,2.50
2022-09-10T00:09:14.468Z,1.95
2022-09-10T00:11:43.317Z,1.83
2022-09-10T00:14:17.420Z,2.42
2022-09-10T00:16:46.382Z,2.25
2022-09-10T00:19:17.688Z,2.28
2022-09-10T00:21:46.620Z,2.50
2022-09-10T00:24:15.562Z,2.38
2022-09-10T00:26:44.300Z,2.25
2022-09-10T00:29:18.606Z,2.20
2022-09-10T00:31:47.493Z,2.50
2022-09-10T00:34:17.565Z,2.05
2022-09-10T00:36:46.965Z,2.40
2022-09-10T00:39:17.621Z,1.75
2022-09-10T00:41:48.322Z,1.85
2022-09-10T00:44:54.493Z,2.20
2022-09-10T00:47:27.570Z,2.10
2022-09-10T00:50:02.310Z,2.33
2022-09-10T00:52:31.144Z,2.20
2022-09-10T00:55:00.270Z,2.30
2022-09-10T00:57:30.473Z,2.20
2022-09-10T01:00:05.273Z,2.33
2022-09-10T01:02:33.974Z,2.25
2022-09-10T01:05:15.919Z,2.28
2022-09-10T01:07:44.992Z,2.47
2022-09-10T01:10:18.178Z,2.33
2022-09-10T01:13:16.965Z,2.60
2022-09-10T01:15:54.617Z,2.20
2022-09-10T01:18:31.935Z,2.72
2022-09-10T01:21:19.514Z,2.30
2022-09-10T01:24:19.270Z,2.13
2022-09-10T01:27:19.370Z,2.42
2022-09-10T01:29:55.372Z,1.95
2022-09-10T01:32:28.439Z,2.17
2022-09-10T01:35:04.413Z,2.10
2022-09-10T01:37:36.567Z,2.45
2022-09-10T01:40:06.597Z,2.50
2022-09-10T01:42:35.625Z,2.00
2022-09-10T01:45:06.836Z,2.10
2022-09-10T01:47:56.473Z,1.98
2022-09-10T01:50:31.308Z,2.35
2022-09-10T01:53:13.522Z,2.28
2022-09-10T01:55:48.719Z,2.40
2022-09-10T01:58:24.337Z,2.10
2022-09-10T02:01:06.169Z,2.30
2022-09-10T02:03:37.260Z,2.47
2022-09-10T02:06:09.763Z,2.20
2022-09-10T02:08:41.731Z,1.70
2022-09-10T02:11:14.458Z,2.40
2022-09-10T02:13:43.742Z,2.40
2022-09-10T02:16:18.579Z,1.90
2022-09-10T02:18:47.361Z,2.05
2022-09-10T02:21:16.315Z,1.92
2022-09-10T02:23:47.460Z,2.50
2022-09-10T02:26:16.398Z,2.25
2022-09-10T02:28:45.682Z,2.65
2022-09-10T02:31:15.790Z,2.15
2022-09-10T02:33:44.535Z,2.13
2022-09-10T02:36:13.096Z,2.10
2022-09-10T02:38:41.682Z,2.00
2022-09-10T02:41:10.877Z,2.50
2022-09-10T02:43:39.442Z,2.63
2022-09-10T02:46:08.360Z,2.10
2022-09-10T02:48:39.573Z,2.47
2022-09-10T02:51:08.402Z,2.65
2022-09-10T02:53:37.168Z,2.28
2022-09-10T02:56:06.087Z,2.60
2022-09-10T02:58:34.618Z,2.83
2022-09-10T03:01:11.845Z,2.40
2022-09-10T03:03:42.692Z,2.30
2022-09-10T03:06:11.994Z,2.50
2022-09-10T03:08:40.722Z,2.47
2022-09-10T03:11:09.417Z,2.35
2022-09-10T03:13:38.107Z,2.35
2022-09-10T03:16:07.054Z,2.20
2022-09-10T03:18:35.792Z,2.40
2022-09-10T03:21:18.538Z,2.60
2022-09-10T03:23:49.700Z,2.08
2022-09-10T03:26:20.300Z,2.30
2022-09-10T03:28:50.346Z,2.45
2022-09-10T03:31:19.593Z,2.58
2022-09-10T03:33:48.256Z,2.35
2022-09-10T03:36:18.967Z,2.10
2022-09-10T03:38:47.393Z,2.47
2022-09-10T03:41:15.867Z,2.08
2022-09-10T03:43:44.313Z,2.10
2022-09-10T03:46:13.217Z,2.05
2022-09-10T03:48:42.983Z,1.88
2022-09-10T03:51:11.901Z,1.83
2022-09-10T03:53:42.228Z,2.17
2022-09-10T03:56:10.661Z,1.95
2022-09-10T03:58:39.846Z,2.00
2022-09-10T04:01:08.995Z,2.10
2022-09-10T04:03:37.675Z,2.28
2022-09-10T04:06:06.437Z,2.10
2022-09-10T04:08:35.230Z,1.83
2022-09-10T04:11:06.115Z,2.25
2022-09-10T04:13:34.913Z,2.25
2022-09-10T04:16:04.883Z,2.00
2022-09-10T04:18:35.337Z,2.08
2022-09-10T04:21:04.124Z,2.20
2022-09-10T04:23:33.438Z,2.35
2022-09-10T04:26:01.986Z,2.00
2022-09-10T04:28:32.039Z,2.08
2022-09-10T04:31:01.136Z,1.95
2022-09-10T04:33:29.438Z,2.33
2022-09-10T04:36:00.720Z,2.15
2022-09-10T04:38:30.601Z,2.00
2022-09-10T04:40:59.719Z,2.60
2022-09-10T04:43:28.635Z,2.25
2022-09-10T04:45:59.249Z,2.22
2022-09-10T04:48:27.905Z,2.28
2022-09-10T04:51:15.391Z,2.38
2022-09-10T04:53:44.814Z,2.38
2022-09-10T04:56:13.350Z,1.88
2022-09-10T04:58:42.273Z,2.05
2022-09-10T05:01:48.056Z,2.22
2022-09-10T05:04:18.414Z,2.28
2022-09-10T05:06:55.365Z,1.90
2022-09-10T05:09:58.745Z,2.10
2022-09-10T05:12:40.834Z,2.53
2022-09-10T05:18:00.388Z,2.10
2022-09-10T05:20:28.936Z,1.90
2022-09-10T05:22:57.404Z,2.13
2022-09-10T05:25:26.088Z,2.42
2022-09-10T05:27:55.390Z,2.38
2022-09-10T05:30:23.701Z,2.00
2022-09-10T05:32:53.409Z,2.60
2022-09-10T05:35:23.129Z,2.28
2022-09-10T05:37:51.513Z,2.10
2022-09-10T05:40:21.021Z,2.45
2022-09-10T05:42:49.422Z,1.80
2022-09-10T05:45:19.452Z,2.47
2022-09-10T05:47:47.790Z,2.08
2022-09-10T05:50:17.349Z,2.28
2022-09-10T05:52:47.273Z,2.00
2022-09-10T05:55:15.619Z,2.20
2022-09-10T05:57:44.003Z,1.75
2022-09-10T06:00:12.960Z,2.08
2022-09-10T06:02:41.721Z,2.00
2022-09-10T06:05:10.878Z,2.00
2022-09-10T06:07:39.982Z,2.00
2022-09-10T06:10:11.019Z,2.45
2022-09-10T06:12:40.243Z,2.00
2022-09-10T06:15:09.320Z,2.20
2022-09-10T06:17:38.319Z,2.28
2022-09-10T06:20:07.598Z,2.25
2022-09-10T06:22:36.534Z,2.17
2022-09-10T06:25:05.132Z,2.38
2022-09-10T06:27:35.362Z,2.38
2022-09-10T06:30:03.627Z,2.25
2022-09-10T06:32:33.226Z,1.88
2022-09-10T06:35:01.536Z,2.40
2022-09-10T06:37:35.056Z,2.33
2022-09-10T06:40:04.115Z,2.10
2022-09-10T06:42:33.253Z,2.28
2022-09-10T06:45:02.924Z,2.42
2022-09-10T06:48:18.750Z,2.17
2022-09-10T06:50:19.765Z,2.33
2022-09-10T06:52:48.928Z,2.15
2022-09-10T06:55:18.397Z,2.10
2022-09-10T06:57:47.145Z,2.33
2022-09-10T07:00:17.785Z,2.20
2022-09-10T07:02:46.099Z,2.00
2022-09-10T07:05:14.450Z,2.30
2022-09-10T07:07:43.208Z,2.15
2022-09-10T07:10:11.532Z,2.17
2022-09-10T07:12:40.022Z,2.10
2022-09-10T07:15:09.270Z,1.92
2022-09-10T07:17:39.240Z,1.77
2022-09-10T07:21:01.333Z,1.75
2022-09-10T07:27:56.623Z,1.83
2022-09-10T07:32:54.162Z,1.98
2022-09-10T07:35:22.666Z,1.65
2022-09-10T07:37:50.969Z,1.67
2022-09-10T07:40:19.508Z,1.83
2022-09-10T07:42:47.895Z,2.08
2022-09-10T07:45:16.392Z,1.70
2022-09-10T07:47:45.337Z,1.65
2022-09-10T07:50:15.500Z,1.70
2022-09-10T07:52:43.917Z,1.85
2022-09-10T07:55:13.365Z,1.95
2022-09-10T07:57:41.829Z,1.60
2022-09-10T08:00:16.744Z,1.92
2022-09-10T08:02:46.974Z,1.63
2022-09-10T08:05:17.094Z,1.92
2022-09-10T08:07:45.499Z,2.10
2022-09-10T08:10:14.183Z,2.85
2022-09-10T08:12:43.252Z,2.47
2022-09-10T08:15:12.395Z,2.80
2022-09-10T08:17:40.772Z,2.78
2022-09-10T08:20:10.730Z,2.03
2022-09-10T08:22:40.480Z,2.45
2022-09-10T08:25:09.685Z,2.22
2022-09-10T08:27:38.686Z,2.45
2022-09-10T08:30:08.100Z,2.35
2022-09-10T08:32:36.997Z,2.33
2022-09-10T08:35:06.027Z,2.15
2022-09-10T08:37:34.640Z,1.77
2022-09-10T08:40:06.032Z,1.85
2022-09-10T08:42:40.563Z,2.20
2022-09-10T08:45:15.249Z,1.95
2022-09-10T08:47:53.434Z,1.80
2022-09-10T08:50:30.356Z,1.52
2022-09-10T08:53:05.451Z,1.85
2022-09-10T08:55:39.456Z,2.20
2022-09-10T08:58:15.579Z,1.80
2022-09-10T09:00:45.733Z,2.00
2022-09-10T09:03:22.271Z,2.13
2022-09-10T09:05:53.818Z,1.80
2022-09-10T09:08:27.289Z,2.00
2022-09-10T09:11:07.205Z,1.65
2022-09-10T09:14:02.768Z,1.65
2022-09-10T09:16:44.233Z,1.65
2022-09-10T09:19:25.307Z,1.60
2022-09-10T09:21:55.326Z,1.40
2022-09-10T09:24:26.093Z,2.28
2022-09-10T09:27:04.736Z,1.33
2022-09-10T09:29:38.283Z,1.83
2022-09-10T09:32:07.836Z,1.90
2022-09-10T09:34:40.943Z,2.25
2022-09-10T09:37:18.193Z,1.95
2022-09-10T09:39:54.142Z,1.95
2022-09-10T09:42:30.435Z,1.90
2022-09-10T09:45:06.893Z,2.10
2022-09-10T09:47:35.590Z,1.90
2022-09-10T09:50:04.009Z,2.20
2022-09-10T09:52:33.464Z,2.10
2022-09-10T09:55:15.746Z,1.92
2022-09-10T09:57:47.263Z,1.70
2022-09-10T10:00:36.493Z,1.90
2022-09-10T10:03:17.033Z,1.83
2022-09-10T10:05:46.729Z,2.00
2022-09-10T10:08:31.182Z,1.80
2022-09-10T10:10:59.997Z,1.88
2022-09-10T10:13:39.308Z,2.30
2022-09-10T10:16:17.851Z,2.25
2022-09-10T10:18:46.790Z,2.00
2022-09-10T10:21:18.260Z,1.80
2022-09-10T10:23:47.142Z,2.10
2022-09-10T10:26:30.520Z,2.08
2022-09-10T10:29:06.782Z,2.13
2022-09-10T10:31:41.485Z,1.90
2022-09-10T10:34:35.205Z,1.92
2022-09-10T10:37:10.022Z,1.77
2022-09-10T10:40:01.136Z,1.98
2022-09-10T10:42:35.279Z,2.13
2022-09-10T10:45:19.225Z,2.05
2022-09-10T10:48:04.391Z,2.17
2022-09-10T10:50:42.822Z,1.75
2022-09-10T10:53:23.007Z,2.30
2022-09-10T10:56:00.514Z,1.83
2022-09-10T10:58:54.583Z,1.90
2022-09-10T11:01:26.412Z,1.63
2022-09-10T11:04:02.815Z,1.60
2022-09-10T11:06:38.484Z,1.80
2022-09-10T11:09:13.756Z,1.73
2022-09-10T11:11:54.053Z,1.60
2022-09-10T11:14:28.586Z,1.80
2022-09-10T11:17:01.826Z,1.63
2022-09-10T11:19:37.475Z,1.70
2022-09-10T11:22:12.354Z,2.05
2022-09-10T11:24:47.065Z,2.00
2022-09-10T11:27:20.284Z,2.17
2022-09-10T11:29:57.302Z,2.03
2022-09-10T11:32:31.972Z,1.80
2022-09-10T11:35:07.323Z,1.63
2022-09-10T11:37:53.078Z,2.00
2022-09-10T11:40:28.637Z,1.80
2022-09-10T11:43:02.937Z,1.92
2022-09-10T11:45:38.188Z,1.67
2022-09-10T11:48:17.517Z,1.65
2022-09-10T11:50:51.959Z,1.40
2022-09-10T11:53:23.304Z,1.85
2022-09-10T11:56:16.114Z,1.50
2022-09-10T11:58:56.062Z,2.08
2022-09-10T12:01:38.949Z,1.77
2022-09-10T12:04:36.791Z,1.58
2022-09-10T12:07:18.834Z,2.00
2022-09-10T12:09:56.381Z,1.88
2022-09-10T12:12:32.693Z,1.55
2022-09-10T12:15:01.858Z,1.73
2022-09-10T12:17:37.359Z,1.65
2022-09-10T12:20:16.278Z,1.90
2022-09-10T12:22:46.994Z,1.90
2022-09-10T12:25:33.585Z,1.50
2022-09-10T12:28:08.275Z,1.70
2022-09-10T12:31:03.025Z,1.50
2022-09-10T12:34:12.476Z,1.83
2022-09-10T12:37:17.239Z,1.73
2022-09-10T12:39:47.280Z,1.60
2022-09-10T12:42:31.876Z,1.88
2022-09-10T12:45:00.732Z,1.98
2022-09-10T12:47:52.638Z,1.95
2022-09-10T12:50:34.642Z,1.50
2022-09-10T12:53:37.494Z,1.60
2022-09-10T12:56:38.345Z,2.00
2022-09-10T12:59:32.448Z,2.00
2022-09-10T13:02:01.424Z,1.25
2022-09-10T13:04:32.619Z,1.55
2022-09-10T13:07:04.610Z,1.90
2022-09-10T13:09:35.762Z,1.70
2022-09-10T13:12:08.249Z,1.52
2022-09-10T13:14:45.861Z,1.58
2022-09-10T13:17:39.838Z,2.08
2022-09-10T13:20:29.497Z,1.60
2022-09-10T13:23:01.485Z,1.70
2022-09-10T13:25:37.016Z,1.80
2022-09-10T13:28:44.681Z,2.00
2022-09-10T13:31:21.793Z,1.80
2022-09-10T13:34:27.467Z,1.75
2022-09-10T13:37:12.819Z,1.50
2022-09-10T13:40:20.911Z,1.67
2022-09-10T13:43:13.973Z,1.70
2022-09-10T13:45:47.796Z,1.60
2022-09-10T13:48:22.467Z,1.80
2022-09-10T13:50:59.292Z,1.88
2022-09-10T13:53:29.883Z,1.60
2022-09-10T13:55:59.916Z,1.58
2022-09-10T13:58:31.421Z,1.70
2022-09-10T14:01:03.941Z,1.70
2022-09-10T14:03:36.682Z,1.50
2022-09-10T14:06:08.466Z,1.70
2022-09-10T14:08:39.647Z,1.70
2022-09-10T14:11:17.115Z,1.77
2022-09-10T14:13:52.017Z,1.65
2022-09-10T14:16:29.976Z,1.60
2022-09-10T14:19:04.464Z,1.55
2022-09-10T14:21:33.367Z,1.50
2022-09-10T14:24:02.122Z,1.63
2022-09-10T14:26:33.849Z,1.65
2022-09-10T14:29:04.678Z,1.80
2022-09-10T14:31:37.201Z,1.67
2022-09-10T14:34:35.024Z,2.15
2022-09-10T14:37:24.529Z,1.58
2022-09-10T14:39:53.520Z,2.05
2022-09-10T14:42:28.231Z,1.80
2022-09-10T14:44:56.856Z,1.73
2022-09-10T14:47:30.521Z,1.90
2022-09-10T14:50:28.747Z,1.65
2022-09-10T14:52:57.287Z,1.77
2022-09-10T14:55:28.396Z,1.60
2022-09-10T14:57:57.481Z,1.77
2022-09-10T15:00:27.241Z,1.67
2022-09-10T15:02:57.511Z,1.60
2022-09-10T15:05:27.970Z,2.00
2022-09-10T15:07:56.317Z,1.73
2022-09-10T15:10:24.794Z,1.92
2022-09-10T15:12:53.386Z,1.60
2022-09-10T15:15:21.867Z,1.50
2022-09-10T15:17:50.604Z,1.80
2022-09-10T15:20:19.151Z,1.98
2022-09-10T15:22:49.525Z,1.83
2022-09-10T15:25:38.009Z,1.77
2022-09-10T15:28:07.527Z,1.70
2022-09-10T15:30:37.092Z,1.67
2022-09-10T15:33:06.212Z,1.90
2022-09-10T15:35:35.038Z,1.70
2022-09-10T15:38:04.749Z,1.73
2022-09-10T15:40:33.226Z,1.73
2022-09-10T15:43:01.441Z,1.70
2022-09-10T15:45:29.843Z,2.10
2022-09-10T15:47:58.980Z,1.73
2022-09-10T15:50:27.473Z,1.50
2022-09-10T15:52:56.258Z,1.50
2022-09-10T15:55:27.872Z,1.65
2022-09-10T15:57:56.153Z,1.65
2022-09-10T16:00:24.672Z,2.20
2022-09-10T16:02:54.023Z,1.98
2022-09-10T16:05:22.771Z,1.75
2022-09-10T16:07:51.073Z,1.83
2022-09-10T16:10:19.425Z,1.77
2022-09-10T16:12:49.056Z,2.15
2022-09-10T16:15:17.502Z,1.75
2022-09-10T16:17:45.857Z,1.75
2022-09-10T16:20:14.170Z,1.70
2022-09-10T16:22:42.435Z,1.90
2022-09-10T16:25:12.151Z,1.50
2022-09-10T16:27:43.180Z,1.50
2022-09-10T16:30:14.511Z,2.00
2022-09-10T16:32:42.819Z,1.92
2022-09-10T16:35:11.942Z,1.75
2022-09-10T16:37:40.404Z,1.92
2022-09-10T16:40:11.647Z,1.67
2022-09-10T16:42:39.908Z,1.70
2022-09-10T16:45:09.464Z,1.90
2022-09-10T16:47:39.130Z,1.90
2022-09-10T16:50:08.087Z,1.80
2022-09-10T16:52:36.888Z,1.77
2022-09-10T16:55:07.062Z,2.00
2022-09-10T16:57:35.363Z,2.13
2022-09-10T17:00:06.082Z,1.80
2022-09-10T17:02:35.318Z,1.98
2022-09-10T17:05:05.547Z,1.98
2022-09-10T17:07:33.846Z,1.80
2022-09-10T17:10:02.078Z,1.60
2022-09-10T17:12:30.450Z,2.00
2022-09-10T17:14:58.674Z,1.80
2022-09-10T17:17:27.459Z,1.80
2022-09-10T17:19:56.525Z,2.10
2022-09-10T17:22:27.125Z,1.90
2022-09-10T17:24:56.132Z,1.70
2022-09-10T17:27:25.664Z,2.10
2022-09-10T17:29:54.406Z,1.80
2022-09-10T17:32:24.266Z,2.15
2022-09-10T17:34:52.578Z,2.10
2022-09-10T17:37:21.146Z,1.80
2022-09-10T17:39:51.835Z,2.30
2022-09-10T17:42:20.648Z,2.30
2022-09-10T17:44:49.848Z,2.13
2022-09-10T17:47:19.427Z,2.00
2022-09-10T17:49:48.345Z,2.00
2022-09-10T17:52:17.884Z,2.20
2022-09-10T17:54:47.598Z,2.20
2022-09-10T17:57:17.843Z,2.30
2022-09-10T17:59:46.411Z,2.25
2022-09-10T18:02:17.382Z,2.38
2022-09-10T18:04:49.659Z,2.47
2022-09-10T18:07:18.766Z,3.05
2022-09-10T18:09:48.266Z,3.00
2022-09-10T18:12:18.146Z,3.20
2022-09-10T18:14:46.407Z,3.33
2022-09-10T18:17:14.963Z,3.33
2022-09-10T18:19:43.432Z,3.92
2022-09-10T18:22:11.652Z,3.35
2022-09-10T18:24:39.931Z,3.03
2022-09-10T18:27:08.401Z,3.50
2022-09-10T18:29:38.951Z,3.20
2022-09-10T18:32:08.926Z,4.88
2022-09-10T18:34:37.221Z,3.78
2022-09-10T18:37:05.604Z,2.67
2022-09-10T18:39:34.418Z,2.83
2022-09-10T18:42:03.472Z,2.55
2022-09-10T18:44:34.418Z,2.72
2022-09-10T18:47:17.688Z,1.90
2022-09-10T18:49:50.927Z,2.30
2022-09-10T18:52:19.527Z,2.15
2022-09-10T18:54:47.787Z,2.20
2022-09-10T18:57:16.076Z,2.05
2022-09-10T18:59:44.467Z,2.70
2022-09-10T19:02:15.415Z,3.15
2022-09-10T19:05:07.355Z,2.63
2022-09-10T19:07:32.173Z,2.40
2022-09-10T19:10:04.330Z,3.60
2022-09-10T19:12:32.618Z,2.35
2022-09-10T19:15:01.000Z,3.60
2022-09-10T19:17:30.828Z,2.38
2022-09-10T19:19:59.163Z,2.30
2022-09-10T19:22:27.575Z,2.33
2022-09-10T19:24:56.708Z,2.83
2022-09-10T19:27:25.566Z,2.65
2022-09-10T19:29:54.256Z,2.38
2022-09-10T19:32:22.958Z,2.50
2022-09-10T19:34:54.934Z,2.10
2022-09-10T19:37:24.412Z,2.50
2022-09-10T19:39:52.705Z,2.45
2022-09-10T19:42:21.406Z,2.50
2022-09-10T19:44:49.738Z,2.20
2022-09-10T19:47:19.611Z,1.90
2022-09-10T19:49:48.395Z,2.17
2022-09-10T19:52:19.412Z,2.05
2022-09-10T19:54:49.571Z,2.10
2022-09-10T19:57:18.284Z,1.83
2022-09-10T19:59:46.654Z,2.03
2022-09-10T20:02:15.060Z,2.13
2022-09-10T20:04:43.616Z,2.00
2022-09-10T20:07:11.971Z,1.70
2022-09-10T20:09:42.369Z,2.03
2022-09-10T20:12:11.124Z,1.67
2022-09-10T20:14:39.570Z,2.90
2022-09-10T20:17:08.099Z,2.47
2022-09-10T20:19:36.438Z,2.95
2022-09-10T20:22:04.849Z,2.10
2022-09-10T20:24:33.589Z,2.38
2022-09-10T20:27:03.796Z,1.70
2022-09-10T20:29:32.932Z,2.22
2022-09-10T20:32:01.260Z,2.30
2022-09-10T20:34:29.738Z,4.50
2022-09-10T20:36:58.216Z,3.17
2022-09-10T20:39:27.462Z,3.22
2022-09-10T20:41:56.448Z,2.72
2022-09-10T20:44:26.405Z,2.38
2022-09-10T20:46:54.857Z,2.42
2022-09-10T20:49:23.492Z,2.50
2022-09-10T20:51:52.538Z,2.30
2022-09-10T20:54:21.357Z,2.20
2022-09-10T20:56:50.243Z,2.50
2022-09-10T20:59:19.580Z,2.85
2022-09-10T21:01:50.959Z,2.75
2022-09-10T21:04:20.050Z,2.22
2022-09-10T21:06:48.524Z,2.75
2022-09-10T21:09:17.166Z,2.63
2022-09-10T21:11:45.881Z,2.47
2022-09-10T21:14:14.536Z,2.20
2022-09-10T21:16:43.704Z,3.05
2022-09-10T21:19:15.175Z,2.88
2022-09-10T21:21:46.280Z,2.75
2022-09-10T21:24:16.292Z,3.13
2022-09-10T21:26:47.937Z,2.55
2022-09-10T21:29:18.237Z,2.42
2022-09-10T21:31:47.267Z,3.50
2022-09-10T21:34:17.927Z,2.70
2022-09-10T21:36:46.855Z,2.92
2022-09-10T21:39:17.461Z,3.20
2022-09-10T21:41:48.265Z,3.75
2022-09-10T21:44:19.930Z,2.83
2022-09-10T21:46:49.952Z,3.83
2022-09-10T21:49:20.625Z,3.45
2022-09-10T21:51:51.361Z,3.40
2022-09-10T21:54:22.088Z,2.92
2022-09-10T21:56:51.218Z,2.38
2022-09-10T21:59:21.581Z,2.47
2022-09-10T22:01:51.345Z,2.42
2022-09-10T22:04:23.142Z,2.63
2022-09-10T22:06:54.517Z,2.42
2022-09-10T22:09:24.426Z,2.10
2022-09-10T22:11:55.325Z,2.17
2022-09-10T22:14:25.573Z,2.47
2022-09-10T22:16:53.989Z,1.90
2022-09-10T22:19:26.033Z,2.15
2022-09-10T22:21:56.790Z,1.90
2022-09-10T22:24:26.189Z,1.98
2022-09-10T22:26:54.685Z,1.98
2022-09-10T22:29:23.129Z,2.00
2022-09-10T22:31:51.445Z,1.83
2022-09-10T22:34:20.805Z,1.90
2022-09-10T22:36:50.699Z,1.83
2022-09-10T22:39:20.488Z,1.70
2022-09-10T22:41:50.097Z,1.40
2022-09-10T22:44:20.115Z,2.13
2022-09-10T22:46:48.719Z,1.70
2022-09-10T22:49:17.998Z,2.00
2022-09-10T22:51:46.447Z,1.60
2022-09-10T22:54:16.662Z,1.63
2022-09-10T22:56:45.589Z,1.77
2022-09-10T22:59:15.345Z,1.63
2022-09-10T23:01:47.586Z,1.75
2022-09-10T23:04:16.639Z,1.83
2022-09-10T23:06:45.178Z,1.95
2022-09-10T23:09:16.594Z,1.80
2022-09-10T23:11:45.877Z,1.70
2022-09-10T23:14:17.915Z,1.60
2022-09-10T23:16:48.581Z,1.70
2022-09-10T23:19:18.757Z,1.90
2022-09-10T23:21:50.002Z,2.00
2022-09-10T23:24:22.025Z,1.90
2022-09-10T23:26:50.394Z,1.90
2022-09-10T23:29:18.783Z,2.10
2022-09-10T23:31:47.920Z,1.77
2022-09-10T23:34:18.545Z,2.08
2022-09-10T23:36:48.620Z,1.83
2022-09-10T23:39:19.896Z,1.77
2022-09-10T23:41:49.748Z,1.83
2022-09-10T23:44:18.553Z,1.95
2022-09-10T23:46:46.935Z,1.73
2022-09-10T23:49:16.050Z,1.73
2022-09-10T23:51:44.552Z,1.60
2022-09-10T23:54:13.261Z,1.52
2022-09-10T23:56:42.053Z,1.60
2022-09-10T23:59:12.602Z,1.70
